KSQL/SQL METAR and TAF weather

Enter ICAO airport designator
Station Type Date Time Source
KSQL METAR 2022/01/29 13:15 UTC NOAA

KSQL 291315Z AUTO 00000KT 7SM CLR 07/05 A3022 RMK AO2


Station Type Date Time Source
KSQL Decoded METAR 2022/01/29 13:15 UTC NOAA

San Carlos Airport, CA, United States (KSQL) 37-31N 122-15W
Jan 29, 2022 - 08:15 AM EST / 2022.01.29 1315 UTC
Wind: Calm:0
Visibility: 7 mile(s):0
Sky conditions: clear
Temperature: 44 F (7 C)
Dew Point: 41 F (5 C)
Relative Humidity: 87%
Pressure (altimeter): 30.22 in. Hg (1023 hPa)
ob: KSQL 291315Z AUTO 00000KT 7SM CLR 07/05 A3022 RMK AO2
cycle: 13

Station Type Date Time Source
KSQL TAF UTC NOAA

Error!

Example: see airport list